Time;durP1;ratioP1;P1;durP2;ratioP2;P2;SDS_P1;SDS_P2;PMS_P1;PMS_P2;Temp;Humidity;BMP_temperature;BMP_pressure;BME280_temperature;BME280_humidity;BME280_pressure;Samples;Min_cycle;Max_cycle;Signal;HPM_P1;HPM_P2
2022/05/06 00:02:22;;;;;;;13.90;8.85;;;;;;;;;;6131470;23;20026;-92
2022/05/06 00:04:48;;;;;;;12.10;7.25;;;;;;;;;;6107010;23;20013;-92
2022/05/06 00:07:14;;;;;;;11.35;5.20;;;;;;;;;;6106276;23;20026;-93
2022/05/06 00:09:41;;;;;;;7.90;4.45;;;;;;;;;;6106265;23;20017;-91
2022/05/06 00:12:08;;;;;;;12.73;6.35;;;;;;;;;;6106206;23;20029;-92
2022/05/06 00:14:35;;;;;;;9.05;7.78;;;;;;;;;;6106232;23;20025;-92
2022/05/06 00:17:01;;;;;;;10.55;8.00;;;;;;;;;;6106498;23;20154;-93
2022/05/06 00:19:28;;;;;;;11.65;9.10;;;;;;;;;;6106747;23;20101;-94
2022/05/06 00:21:54;;;;;;;24.15;13.80;;;;;;;;;;6107268;23;20025;-93
2022/05/06 00:24:20;;;;;;;22.48;15.38;;;;;;;;;;6107560;23;20049;-93
2022/05/06 00:26:46;;;;;;;26.92;15.88;;;;;;;;;;6130928;23;20022;-93
2022/05/06 00:29:12;;;;;;;43.33;15.50;;;;;;;;;;6130760;23;20022;-94
2022/05/06 00:31:38;;;;;;;36.88;15.60;;;;;;;;;;6130823;23;20026;-93
2022/05/06 00:34:04;;;;;;;20.55;13.55;;;;;;;;;;6132127;23;20040;-93
2022/05/06 00:36:30;;;;;;;27.55;14.15;;;;;;;;;;6130727;23;20025;-93
2022/05/06 00:38:57;;;;;;;19.27;13.18;;;;;;;;;;6130907;23;20040;-93
2022/05/06 00:41:23;;;;;;;15.45;12.23;;;;;;;;;;6106250;23;20403;-93
2022/05/06 00:43:49;;;;;;;17.45;10.45;;;;;;;;;;6107833;23;20025;-93
2022/05/06 00:46:16;;;;;;;14.23;10.10;;;;;;;;;;6131714;23;20096;-94
2022/05/06 00:48:46;;;;;;;22.88;13.13;;;;;;;;;;6132141;23;20443;-94
2022/05/06 00:51:13;;;;;;;19.77;13.20;;;;;;;;;;6106947;23;20022;-94
2022/05/06 00:53:40;;;;;;;21.65;14.07;;;;;;;;;;6107678;23;20053;-94
2022/05/06 00:56:09;;;;;;;25.00;15.68;;;;;;;;;;6107500;23;20068;-95
2022/05/06 00:58:35;;;;;;;28.50;16.45;;;;;;;;;;6106426;23;20025;-93
2022/05/06 01:01:10;;;;;;;23.98;16.35;;;;;;;;;;6107474;23;20021;-94
2022/05/06 01:03:36;;;;;;;26.33;16.25;;;;;;;;;;6130661;23;20022;-94
2022/05/06 01:06:05;;;;;;;26.48;17.23;;;;;;;;;;6106335;23;20097;-94
2022/05/06 01:08:31;;;;;;;26.23;18.58;;;;;;;;;;6106345;23;20093;-94
2022/05/06 01:10:58;;;;;;;29.48;18.63;;;;;;;;;;6106800;23;20371;-94
2022/05/06 01:13:24;;;;;;;32.42;17.90;;;;;;;;;;6106297;23;20025;-91
2022/05/06 01:15:50;;;;;;;35.30;18.70;;;;;;;;;;6105620;23;20017;-92
2022/05/06 01:18:16;;;;;;;31.25;19.55;;;;;;;;;;6105946;23;20057;-91
2022/05/06 01:20:46;;;;;;;30.25;18.35;;;;;;;;;;6105681;23;20395;-92
2022/05/06 01:23:12;;;;;;;28.75;16.58;;;;;;;;;;6130255;23;20502;-91
2022/05/06 01:25:38;;;;;;;25.48;17.42;;;;;;;;;;6106628;23;20025;-91
2022/05/06 01:28:05;;;;;;;24.85;16.10;;;;;;;;;;6106297;23;20028;-92
2022/05/06 01:30:38;;;;;;;25.23;15.63;;;;;;;;;;6107102;23;20022;-92
2022/05/06 01:33:08;;;;;;;18.40;12.60;;;;;;;;;;6105750;23;20391;-91
2022/05/06 01:35:43;;;;;;;22.83;13.88;;;;;;;;;;6105591;23;20285;-91
2022/05/06 01:38:09;;;;;;;23.08;12.13;;;;;;;;;;6110049;23;20060;-92
2022/05/06 01:40:40;;;;;;;22.02;13.48;;;;;;;;;;6135287;23;20451;-91
2022/05/06 01:43:07;;;;;;;19.27;13.63;;;;;;;;;;6136146;23;20434;-91
2022/05/06 01:45:36;;;;;;;23.00;14.57;;;;;;;;;;6136677;23;20108;-93
2022/05/06 01:48:04;;;;;;;20.00;13.25;;;;;;;;;;6136684;23;20053;-94
2022/05/06 01:50:32;;;;;;;23.95;14.57;;;;;;;;;;6135419;23;20104;-94
2022/05/06 01:52:59;;;;;;;26.98;14.65;;;;;;;;;;6136693;23;20024;-93
2022/05/06 01:55:26;;;;;;;19.60;14.25;;;;;;;;;;6135231;23;20029;-92
2022/05/06 01:57:55;;;;;;;22.05;15.40;;;;;;;;;;6136555;23;20017;-92
2022/05/06 02:00:21;;;;;;;20.88;14.60;;;;;;;;;;6135877;23;20021;-94
2022/05/06 02:02:47;;;;;;;21.60;14.52;;;;;;;;;;6136539;23;20021;-92
2022/05/06 02:05:19;;;;;;;18.05;13.40;;;;;;;;;;6138526;23;20510;-94
2022/05/06 02:07:50;;;;;;;16.90;11.90;;;;;;;;;;6137311;23;20017;-92
2022/05/06 02:10:16;;;;;;;17.33;13.82;;;;;;;;;;6138120;23;20021;-92
2022/05/06 02:12:44;;;;;;;20.05;14.38;;;;;;;;;;6137358;23;20018;-94
2022/05/06 02:15:11;;;;;;;20.38;15.35;;;;;;;;;;6137707;23;20024;-92
2022/05/06 02:17:41;;;;;;;20.55;14.45;;;;;;;;;;6186923;23;20027;-92
2022/05/06 02:20:09;;;;;;;15.43;12.20;;;;;;;;;;6137523;23;20021;-92
2022/05/06 02:22:35;;;;;;;11.68;9.52;;;;;;;;;;6137309;23;20025;-93
2022/05/06 02:25:04;;;;;;;12.13;9.30;;;;;;;;;;6137245;23;20056;-93
2022/05/06 02:27:30;;;;;;;11.95;9.13;;;;;;;;;;6137294;23;20050;-93
2022/05/06 02:35:28;;;;;;;16.10;11.13;;;;;;;;;;6160833;23;20072;-91
2022/05/06 02:37:55;;;;;;;12.57;10.85;;;;;;;;;;6136083;23;20021;-89
2022/05/06 02:40:21;;;;;;;12.35;8.90;;;;;;;;;;6136029;23;20028;-89
2022/05/06 02:42:47;;;;;;;14.32;10.63;;;;;;;;;;6136238;23;20021;-89
2022/05/06 02:45:13;;;;;;;24.27;13.93;;;;;;;;;;6185606;23;20478;-89
2022/05/06 02:47:39;;;;;;;45.33;21.75;;;;;;;;;;6137676;23;20021;-89
2022/05/06 02:50:06;;;;;;;44.38;21.58;;;;;;;;;;6185673;23;20059;-88
2022/05/06 02:52:32;;;;;;;59.63;24.30;;;;;;;;;;6136698;23;20093;-88
2022/05/06 02:54:58;;;;;;;68.53;26.95;;;;;;;;;;6137433;23;20057;-89
2022/05/06 02:57:24;;;;;;;82.47;28.77;;;;;;;;;;6136901;23;20095;-89
2022/05/06 02:59:50;;;;;;;229.10;36.33;;;;;;;;;;6136183;23;20421;-90
2022/05/06 03:02:16;;;;;;;231.35;38.30;;;;;;;;;;6136083;23;20410;-90
2022/05/06 03:04:43;;;;;;;369.00;43.75;;;;;;;;;;6136113;23;20021;-90
2022/05/06 03:07:09;;;;;;;486.13;53.30;;;;;;;;;;6137156;23;20024;-89
2022/05/06 03:09:38;;;;;;;574.28;59.97;;;;;;;;;;6136020;23;20024;-89
2022/05/06 03:12:05;;;;;;;233.77;41.88;;;;;;;;;;6136137;23;20082;-89
2022/05/06 03:14:31;;;;;;;328.17;46.50;;;;;;;;;;6135844;23;20408;-90
2022/05/06 03:16:57;;;;;;;325.88;46.17;;;;;;;;;;6186746;23;20056;-89
2022/05/06 03:19:23;;;;;;;460.70;56.72;;;;;;;;;;6136034;23;20029;-90
2022/05/06 03:21:56;;;;;;;364.02;50.78;;;;;;;;;;6136258;23;20500;-90
2022/05/06 03:24:23;;;;;;;233.98;43.10;;;;;;;;;;6185730;23;20100;-91
2022/05/06 03:26:49;;;;;;;378.48;49.50;;;;;;;;;;6136422;23;20028;-91
2022/05/06 03:29:15;;;;;;;250.52;43.35;;;;;;;;;;6136931;23;20077;-91
2022/05/06 03:31:41;;;;;;;361.95;49.53;;;;;;;;;;6136392;23;20088;-92
2022/05/06 03:34:07;;;;;;;308.77;47.78;;;;;;;;;;6136330;23;20084;-92
2022/05/06 03:36:34;;;;;;;352.83;45.38;;;;;;;;;;6137341;23;20017;-90
2022/05/06 03:39:00;;;;;;;213.30;41.00;;;;;;;;;;6135962;23;20024;-90
2022/05/06 03:41:26;;;;;;;303.25;46.08;;;;;;;;;;6136122;23;20064;-90
2022/05/06 03:43:53;;;;;;;450.25;54.47;;;;;;;;;;6186019;23;20020;-90
2022/05/06 03:46:19;;;;;;;496.95;58.28;;;;;;;;;;6136864;23;20465;-90
2022/05/06 03:48:45;;;;;;;443.77;57.15;;;;;;;;;;6136971;23;20100;-90
2022/05/06 03:51:20;;;;;;;201.73;42.47;;;;;;;;;;6136876;23;20068;-91
2022/05/06 03:53:47;;;;;;;139.02;38.00;;;;;;;;;;6136677;23;20080;-90
2022/05/06 03:56:13;;;;;;;198.68;38.08;;;;;;;;;;6185592;23;20028;-90
2022/05/06 03:58:39;;;;;;;202.50;41.92;;;;;;;;;;6135347;23;20025;-89
2022/05/06 04:01:07;;;;;;;258.00;42.05;;;;;;;;;;6135447;23;20021;-90
2022/05/06 04:03:33;;;;;;;238.15;43.80;;;;;;;;;;6136267;23;20052;-90
2022/05/06 04:05:59;;;;;;;115.95;31.23;;;;;;;;;;6135723;23;20470;-91
2022/05/06 04:08:25;;;;;;;249.13;44.63;;;;;;;;;;6135528;23;20059;-91
2022/05/06 04:10:51;;;;;;;224.40;39.47;;;;;;;;;;6135592;23;20482;-92
2022/05/06 04:13:18;;;;;;;440.13;52.97;;;;;;;;;;6135845;23;20463;-92
2022/05/06 04:15:45;;;;;;;149.32;35.88;;;;;;;;;;6136984;23;20156;-90
2022/05/06 04:18:12;;;;;;;138.90;35.78;;;;;;;;;;6136936;23;20025;-90
2022/05/06 04:23:29;;;;;;;146.35;32.85;;;;;;;;;;6160069;23;20100;-90
2022/05/06 04:25:55;;;;;;;230.57;37.33;;;;;;;;;;6135299;23;20020;-90
2022/05/06 04:28:23;;;;;;;139.43;33.13;;;;;;;;;;6135367;23;20017;-90
2022/05/06 04:30:50;;;;;;;313.58;43.75;;;;;;;;;;6135320;23;20079;-89
2022/05/06 04:33:17;;;;;;;227.32;35.30;;;;;;;;;;6135354;23;20029;-91
2022/05/06 04:35:46;;;;;;;223.75;39.42;;;;;;;;;;6136539;23;20097;-91
2022/05/06 04:38:12;;;;;;;163.90;35.50;;;;;;;;;;6134968;23;20096;-90
2022/05/06 04:40:40;;;;;;;127.40;31.08;;;;;;;;;;6135826;23;20021;-90
2022/05/06 04:43:06;;;;;;;177.75;36.28;;;;;;;;;;6135149;23;20017;-90
2022/05/06 04:45:36;;;;;;;190.52;39.65;;;;;;;;;;6135268;23;20076;-90
2022/05/06 04:48:02;;;;;;;179.75;40.38;;;;;;;;;;6135378;23;20017;-91
2022/05/06 04:50:28;;;;;;;187.10;40.00;;;;;;;;;;6184719;23;20033;-91
2022/05/06 04:52:54;;;;;;;313.83;48.60;;;;;;;;;;6135471;23;20518;-90
2022/05/06 04:55:20;;;;;;;380.20;51.92;;;;;;;;;;6135544;23;20028;-90
2022/05/06 04:57:46;;;;;;;81.32;32.67;;;;;;;;;;6135051;23;20358;-90
2022/05/06 05:00:13;;;;;;;199.48;41.08;;;;;;;;;;6184934;23;20451;-90
2022/05/06 05:02:39;;;;;;;110.05;35.25;;;;;;;;;;6135043;23;20025;-89
2022/05/06 05:05:05;;;;;;;171.63;35.17;;;;;;;;;;6184402;23;20028;-90
2022/05/06 05:07:31;;;;;;;91.65;30.85;;;;;;;;;;6184597;23;20021;-89
2022/05/06 05:09:57;;;;;;;141.57;37.08;;;;;;;;;;6135106;23;20055;-89
2022/05/06 05:12:24;;;;;;;65.13;29.45;;;;;;;;;;6184484;23;20056;-89
2022/05/06 05:14:51;;;;;;;158.98;35.40;;;;;;;;;;6135627;23;20111;-88
2022/05/06 05:17:17;;;;;;;171.50;34.25;;;;;;;;;;6184400;23;20097;-89
2022/05/06 05:19:43;;;;;;;79.95;31.38;;;;;;;;;;6184201;23;20023;-89
2022/05/06 05:22:10;;;;;;;95.10;31.02;;;;;;;;;;6135445;23;20029;-88
2022/05/06 05:24:36;;;;;;;120.38;33.83;;;;;;;;;;6134806;23;20446;-89
2022/05/06 05:27:02;;;;;;;103.95;32.53;;;;;;;;;;6136105;23;20017;-88
2022/05/06 05:29:29;;;;;;;113.30;30.58;;;;;;;;;;6185046;23;20100;-89
2022/05/06 05:31:55;;;;;;;102.10;29.13;;;;;;;;;;6135029;23;20013;-89
2022/05/06 05:34:22;;;;;;;124.50;31.52;;;;;;;;;;6136848;23;20319;-90
2022/05/06 05:36:48;;;;;;;172.23;35.47;;;;;;;;;;6135802;23;20013;-90
2022/05/06 05:39:14;;;;;;;97.72;30.85;;;;;;;;;;6132115;23;20466;-89
2022/05/06 05:41:40;;;;;;;110.32;30.80;;;;;;;;;;6135310;23;20021;-89
2022/05/06 05:49:35;;;;;;;117.78;29.60;;;;;;;;;;6161697;23;20023;-90
2022/05/06 05:52:01;;;;;;;95.68;28.52;;;;;;;;;;6161835;23;20071;-90
2022/05/06 05:54:28;;;;;;;120.90;30.38;;;;;;;;;;6163219;23;20032;-91
2022/05/06 05:56:55;;;;;;;126.40;31.23;;;;;;;;;;6162620;23;20064;-91
2022/05/06 05:59:22;;;;;;;120.07;32.95;;;;;;;;;;6161385;23;20021;-89
2022/05/06 06:01:49;;;;;;;84.20;28.90;;;;;;;;;;6162285;23;20025;-91
2022/05/06 06:04:15;;;;;;;105.10;29.20;;;;;;;;;;6161608;23;20017;-91
2022/05/06 06:06:44;;;;;;;73.03;28.92;;;;;;;;;;6162642;23;20036;-91
2022/05/06 06:09:10;;;;;;;107.97;29.08;;;;;;;;;;6161693;23;20103;-89
2022/05/06 06:11:36;;;;;;;56.17;22.60;;;;;;;;;;6162848;23;20032;-91
2022/05/06 06:14:03;;;;;;;55.00;23.55;;;;;;;;;;6162440;23;20021;-90
2022/05/06 06:16:29;;;;;;;110.50;25.88;;;;;;;;;;6161657;23;20525;-91
2022/05/06 06:18:58;;;;;;;71.95;24.77;;;;;;;;;;6161360;23;20478;-89
2022/05/06 06:21:25;;;;;;;64.72;22.42;;;;;;;;;;6161347;23;20024;-89
2022/05/06 06:23:51;;;;;;;66.00;22.95;;;;;;;;;;6161734;23;20489;-89
2022/05/06 06:26:17;;;;;;;61.58;22.27;;;;;;;;;;6161471;23;20028;-89
2022/05/06 06:28:43;;;;;;;77.25;23.67;;;;;;;;;;6161087;23;20394;-88
2022/05/06 06:31:09;;;;;;;65.40;22.15;;;;;;;;;;6160562;23;20452;-89
2022/05/06 06:33:38;;;;;;;42.45;18.15;;;;;;;;;;6161665;23;20330;-88
2022/05/06 06:36:09;;;;;;;43.00;18.25;;;;;;;;;;6161100;23;20028;-88
2022/05/06 06:38:36;;;;;;;36.47;16.98;;;;;;;;;;6160946;23;20031;-88
2022/05/06 06:41:02;;;;;;;44.35;18.08;;;;;;;;;;6160838;23;20100;-89
2022/05/06 06:43:28;;;;;;;32.92;16.83;;;;;;;;;;6160921;23;20096;-89
2022/05/06 06:45:56;;;;;;;30.60;15.18;;;;;;;;;;6161880;23;20020;-89
2022/05/06 06:48:26;;;;;;;26.08;14.13;;;;;;;;;;6160719;23;20021;-91
2022/05/06 06:50:52;;;;;;;26.80;14.05;;;;;;;;;;6160816;23;20059;-89
2022/05/06 06:53:19;;;;;;;27.85;13.20;;;;;;;;;;6161090;23;20347;-90
2022/05/06 06:55:46;;;;;;;23.55;13.73;;;;;;;;;;6162527;23;20028;-92
2022/05/06 06:58:12;;;;;;;20.38;12.60;;;;;;;;;;6161257;23;20017;-91
2022/05/06 07:00:38;;;;;;;20.80;11.93;;;;;;;;;;6162281;23;20021;-91
2022/05/06 07:03:04;;;;;;;16.10;9.57;;;;;;;;;;6162158;23;20017;-92
2022/05/06 07:05:30;;;;;;;18.58;11.93;;;;;;;;;;6135986;23;20031;-90
2022/05/06 07:13:26;;;;;;;16.70;10.02;;;;;;;;;;6160785;23;20485;-93
2022/05/06 07:15:52;;;;;;;13.63;9.18;;;;;;;;;;6160964;23;20025;-92
2022/05/06 07:18:18;;;;;;;12.45;8.55;;;;;;;;;;6136478;23;20021;-90
2022/05/06 07:20:44;;;;;;;11.32;7.97;;;;;;;;;;6161103;23;20052;-92
2022/05/06 07:23:10;;;;;;;12.85;8.45;;;;;;;;;;6136255;23;20024;-91
2022/05/06 07:25:37;;;;;;;12.02;8.05;;;;;;;;;;6136089;23;20108;-92
2022/05/06 07:28:07;;;;;;;8.80;6.70;;;;;;;;;;6137588;23;20017;-91
2022/05/06 07:30:33;;;;;;;10.68;7.43;;;;;;;;;;6136355;23;20339;-91
2022/05/06 07:33:00;;;;;;;11.05;7.07;;;;;;;;;;6162433;23;20032;-90
2022/05/06 07:35:26;;;;;;;9.80;6.95;;;;;;;;;;6136779;23;20020;-93
2022/05/06 07:37:52;;;;;;;9.23;7.38;;;;;;;;;;6160215;23;20092;-91
2022/05/06 07:40:18;;;;;;;8.30;6.78;;;;;;;;;;6136497;23;20103;-90
2022/05/06 07:42:45;;;;;;;9.52;7.13;;;;;;;;;;6136096;23;20021;-90
2022/05/06 07:45:11;;;;;;;9.50;7.15;;;;;;;;;;6136100;23;20379;-91
2022/05/06 07:47:58;;;;;;;9.40;6.90;;;;;;;;;;6137199;23;20455;-91
2022/05/06 07:51:01;;;;;;;9.80;7.75;;;;;;;;;;6152364;23;20021;-91
2022/05/06 07:53:55;;;;;;;11.43;7.85;;;;;;;;;;6139913;23;20017;-91
2022/05/06 07:56:38;;;;;;;10.57;6.85;;;;;;;;;;6136400;23;20032;-90
2022/05/06 07:59:13;;;;;;;10.02;7.45;;;;;;;;;;6142215;23;20026;-90
2022/05/06 08:05:16;;;;;;;;;;;;;;;;;;;;;
2022/05/06 08:08:34;;;;;;;;;;;;;;;;;;;;;
2022/05/06 08:11:23;;;;;;;8.60;6.72;;;;;;;;;;5924019;24;20050;-92
2022/05/06 08:13:49;;;;;;;8.95;7.00;;;;;;;;;;5936053;24;20212;-92
2022/05/06 08:16:24;;;;;;;11.95;7.28;;;;;;;;;;5957651;24;20029;-93
2022/05/06 08:18:51;;;;;;;8.05;6.68;;;;;;;;;;6140186;23;20024;-90
2022/05/06 08:21:28;;;;;;;9.88;6.63;;;;;;;;;;6172763;23;20147;-91
2022/05/06 08:24:03;;;;;;;11.77;6.85;;;;;;;;;;6170675;23;20028;-94
2022/05/06 08:26:35;;;;;;;7.70;6.35;;;;;;;;;;6170703;23;20338;-91
2022/05/06 08:29:07;;;;;;;8.88;7.10;;;;;;;;;;6170625;23;20099;-91
2022/05/06 08:31:42;;;;;;;9.70;6.50;;;;;;;;;;6170529;23;20450;-94
2022/05/06 08:34:15;;;;;;;7.93;6.80;;;;;;;;;;6195407;23;20027;-92
2022/05/06 08:37:05;;;;;;;8.35;6.43;;;;;;;;;;6173026;23;20021;-89
2022/05/06 08:39:36;;;;;;;12.10;8.02;;;;;;;;;;6171538;23;20488;-93
2022/05/06 08:42:13;;;;;;;;;;;;;;;;;;;;;
2022/05/06 08:53:55;;;;;;;12.05;7.00;;;;;;;;;;6194984;23;20032;-93
2022/05/06 09:02:12;;;;;;;8.73;7.30;;;;;;;;;;6076250;23;20033;-91
2022/05/06 09:04:43;;;;;;;8.02;6.43;;;;;;;;;;6076823;23;20029;-93
2022/05/06 09:13:33;;;;;;;7.90;6.25;;;;;;;;;;6252377;22;20020;-93
2022/05/06 09:17:11;;;;;;;6.60;5.82;;;;;;;;;;6131898;23;20089;-92
2022/05/06 09:19:59;;;;;;;7.07;6.38;;;;;;;;;;6025899;23;20023;-92
2022/05/06 09:33:46;;;;;;;7.10;5.75;;;;;;;;;;6215040;22;20035;-88
2022/05/06 09:36:26;;;;;;;7.15;6.32;;;;;;;;;;6174307;23;20028;-90
2022/05/06 09:39:20;;;;;;;7.18;6.10;;;;;;;;;;6220522;23;20409;-90
2022/05/06 09:42:04;;;;;;;7.40;6.30;;;;;;;;;;6156005;23;20041;-90
2022/05/06 09:44:33;;;;;;;5.57;5.00;;;;;;;;;;6136919;23;20384;-90
2022/05/06 09:47:20;;;;;;;5.70;5.05;;;;;;;;;;6139442;23;20101;-90
2022/05/06 09:49:48;;;;;;;7.03;5.55;;;;;;;;;;6137005;23;20459;-90
2022/05/06 09:52:21;;;;;;;8.20;5.88;;;;;;;;;;6134402;23;20021;-93
2022/05/06 09:55:05;;;;;;;6.60;5.18;;;;;;;;;;6159819;23;20060;-90
2022/05/06 10:04:14;;;;;;;5.40;4.80;;;15.80;99.90;;;;;;6189313;22;20029;-90
2022/05/06 10:10:31;;;;;;;;;;;;;;;;;;;;;
2022/05/06 10:14:05;;;;;;;6.53;4.57;;;16.00;99.90;;;;;;6105227;23;20073;-91
2022/05/06 10:47:42;;;;;;;5.75;4.20;;;17.10;99.90;;;;;;6220455;22;20497;-94
2022/05/06 10:50:23;;;;;;;4.50;3.67;;;17.20;99.90;;;;;;6074272;23;20026;-92
2022/05/06 10:52:50;;;;;;;4.43;3.47;;;;;;;;;;6073774;23;20019;-93
2022/05/06 10:55:18;;;;;;;3.38;3.03;;;17.20;99.90;;;;;;6050367;23;20498;-93
2022/05/06 10:57:54;;;;;;;2.50;2.30;;;17.40;99.90;;;;;;6049932;23;20070;-94
2022/05/06 11:00:22;;;;;;;2.83;2.53;;;17.70;99.90;;;;;;6049766;23;20593;-93
2022/05/06 11:02:48;;;;;;;6.15;2.42;;;;;;;;;;6050439;23;20070;-94
2022/05/06 11:05:20;;;;;;;4.97;2.92;;;17.70;99.90;;;;;;6049171;23;20026;-95
2022/05/06 11:07:53;;;;;;;5.82;3.33;;;17.90;99.90;;;;;;6050218;23;20026;-95
2022/05/06 11:10:24;;;;;;;2.40;2.20;;;17.80;99.90;;;;;;6049826;23;20026;-95
2022/05/06 11:12:58;;;;;;;2.90;2.22;;;17.90;99.90;;;;;;6050162;23;20495;-93
2022/05/06 11:15:36;;;;;;;2.97;2.67;;;18.20;99.90;;;;;;6049668;23;20028;-94
2022/05/06 11:18:04;;;;;;;4.35;2.95;;;18.20;99.90;;;;;;6049309;23;20058;-91
2022/05/06 11:20:34;;;;;;;3.40;3.00;;;18.20;99.90;;;;;;6049060;23;20069;-93
2022/05/06 11:23:05;;;;;;;4.65;3.05;;;18.20;99.90;;;;;;6052431;23;20050;-93
2022/05/06 11:25:37;;;;;;;4.97;3.15;;;18.20;99.90;;;;;;6050059;23;20029;-93
2022/05/06 11:28:09;;;;;;;3.55;3.17;;;18.50;99.90;;;;;;6155713;23;20024;-94
2022/05/06 11:30:37;;;;;;;5.18;3.05;;;18.20;99.90;;;;;;6172454;23;20052;-92
2022/05/06 11:33:08;;;;;;;7.10;2.75;;;18.20;99.90;;;;;;6193075;23;20031;-93
2022/05/06 11:35:40;;;;;;;5.05;3.15;;;;;;;;;;6166529;23;20350;-93
2022/05/06 11:38:09;;;;;;;5.70;2.88;;;18.50;99.90;;;;;;6168431;23;20032;-92
2022/05/06 11:40:38;;;;;;;4.95;2.80;;;18.40;99.90;;;;;;6191993;23;20063;-93
2022/05/06 11:43:06;;;;;;;6.18;3.20;;;18.60;99.90;;;;;;6167159;23;20068;-92
2022/05/06 11:48:31;;;;;;;4.15;3.10;;;18.80;99.90;;;;;;6193345;23;20016;-96
2022/05/06 11:51:03;;;;;;;5.13;3.88;;;18.80;99.90;;;;;;6192596;23;20095;-92
2022/05/06 11:53:35;;;;;;;8.50;4.35;;;18.70;99.90;;;;;;6194014;23;20013;-95
2022/05/06 11:56:05;;;;;;;5.20;3.25;;;;;;;;;;6193480;23;20025;-93
2022/05/06 11:58:53;;;;;;;;;;;;;;;;;;;;;
2022/05/06 12:02:36;;;;;;;5.07;4.30;;;19.10;99.90;;;;;;6127761;23;20022;-95
2022/05/06 12:05:35;;;;;;;5.88;4.07;;;19.00;99.90;;;;;;6058253;23;20487;-96
2022/05/06 12:08:52;;;;;;;4.78;4.22;;;19.10;99.90;;;;;;6041271;23;20054;-92
2022/05/06 12:12:46;;;;;;;;;;;;;;;;;;;;;
2022/05/06 12:29:46;;;;;;;6.15;3.55;;;18.90;99.90;;;;;;6248190;23;20326;-91
2022/05/06 12:37:13;;;;;;;;;;;;;;;;;;;;;
2022/05/06 12:39:52;;;;;;;10.02;5.20;;;19.10;99.90;;;;;;5991298;23;20032;-92
2022/05/06 12:42:18;;;;;;;6.93;4.97;;;19.20;99.90;;;;;;5991221;23;20020;-91
2022/05/06 12:44:45;;;;;;;7.93;4.38;;;19.60;99.90;;;;;;5990036;23;20358;-89
2022/05/06 12:50:09;;;;;;;5.85;4.30;;;19.70;99.90;;;;;;5989404;23;20437;-92
2022/05/06 12:52:35;;;;;;;6.28;4.45;;;;;;;;;;5988912;23;20076;-92
2022/05/06 12:55:03;;;;;;;12.98;4.63;;;19.70;99.90;;;;;;6012546;23;20023;-93
2022/05/06 13:00:27;;;;;;;11.05;5.28;;;;;;;;;;5956386;24;20035;-90
2022/05/06 13:02:55;;;;;;;16.77;4.70;;;19.70;99.90;;;;;;5932794;24;20089;-90
2022/05/06 13:05:55;;;;;;;14.38;5.50;;;19.70;99.90;;;;;;5955984;24;20029;-93
2022/05/06 13:08:31;;;;;;;6.90;4.43;;;19.90;99.90;;;;;;5933210;23;20103;-93
2022/05/06 13:11:06;;;;;;;5.15;4.20;;;19.80;99.90;;;;;;5933376;24;20119;-90
2022/05/06 13:13:52;;;;;;;6.35;4.43;;;;;;;;;;5931955;24;20111;-92
2022/05/06 13:16:21;;;;;;;8.48;4.38;;;20.00;99.90;;;;;;6021821;23;20027;-96
2022/05/06 13:18:53;;;;;;;5.32;4.05;;;20.00;99.90;;;;;;6072076;23;20063;-93
2022/05/06 13:21:28;;;;;;;6.22;4.15;;;20.10;99.90;;;;;;6073869;23;20026;-94
2022/05/06 13:23:55;;;;;;;8.13;4.60;;;;;;;;;;6080754;23;20041;-86
2022/05/06 13:26:27;;;;;;;6.00;4.55;;;20.40;99.90;;;;;;6105227;23;20022;-90
2022/05/06 13:28:53;;;;;;;5.53;4.35;;;;;;;;;;6165628;23;20052;-84
2022/05/06 13:31:20;;;;;;;7.03;4.20;;;;;;;;;;6143305;23;20044;-88
2022/05/06 13:33:47;;;;;;;7.63;5.47;;;;;;;;;;6144702;23;20025;-91
2022/05/06 13:36:54;;;;;;;5.93;5.30;;;20.60;99.90;;;;;;6197221;23;20021;-95
2022/05/06 13:44:14;;;;;;;;;;;;;;;;;;;;;
2022/05/06 13:49:50;;;;;;;6.80;6.00;;;;;;;;;;6226618;22;20447;-94
2022/05/06 13:54:42;;;;;;;7.68;6.68;;;;;;;;;;6224724;22;20032;-90
2022/05/06 13:59:59;;;;;;;15.15;7.38;;;;;;;;;;6228461;23;20106;-92
2022/05/06 14:02:51;;;;;;;10.73;7.70;;;20.00;99.90;;;;;;6165286;23;20029;-92
2022/05/06 14:05:26;;;;;;;11.52;7.50;;;;;;;;;;6140310;23;20045;-91
2022/05/06 14:08:00;;;;;;;10.07;7.45;;;19.80;99.90;;;;;;6140667;23;20476;-92
2022/05/06 14:10:29;;;;;;;10.82;8.23;;;;;;;;;;6116788;23;20069;-92
2022/05/06 14:12:55;;;;;;;14.10;8.45;;;;;;;;;;6116937;23;20045;-92
2022/05/06 14:15:21;;;;;;;16.92;8.55;;;;;;;;;;6116199;23;20053;-87
2022/05/06 14:17:48;;;;;;;8.40;6.90;;;;;;;;;;6165632;23;20025;-91
2022/05/06 14:20:15;;;;;;;11.98;8.13;;;;;;;;;;6115616;23;20031;-92
2022/05/06 14:22:41;;;;;;;17.27;8.18;;;;;;;;;;6115410;23;20067;-88
2022/05/06 14:25:08;;;;;;;11.45;8.13;;;;;;;;;;6114632;23;20081;-91
2022/05/06 14:27:34;;;;;;;9.90;8.45;;;;;;;;;;6114882;23;20072;-88
2022/05/06 14:30:32;;;;;;;11.88;9.23;;;19.70;99.90;;;;;;6139271;23;20343;-91
2022/05/06 14:33:24;;;;;;;12.52;8.00;;;19.50;99.90;;;;;;6136129;23;20031;-93
2022/05/06 14:36:06;;;;;;;12.13;7.18;;;;;;;;;;6175171;23;20020;-92
2022/05/06 14:38:44;;;;;;;8.93;7.38;;;19.70;99.90;;;;;;6177592;23;20047;-92
2022/05/06 14:41:25;;;;;;;8.07;6.30;;;20.00;99.90;;;;;;6176817;23;20075;-90
2022/05/06 14:43:54;;;;;;;8.68;6.05;;;;;;;;;;6199678;23;20331;-85
2022/05/06 14:46:21;;;;;;;12.02;6.35;;;;;;;;;;6175264;23;20468;-89
2022/05/06 14:48:48;;;;;;;12.98;6.15;;;;;;;;;;6177498;23;20020;-89
2022/05/06 14:51:15;;;;;;;12.52;6.70;;;20.30;99.90;;;;;;6177159;23;20017;-92
2022/05/06 14:53:41;;;;;;;8.57;6.90;;;;;;;;;;6200786;23;20024;-93
2022/05/06 14:56:17;;;;;;;11.43;7.97;;;20.70;99.90;;;;;;6201319;23;20327;-93
2022/05/06 14:58:43;;;;;;;12.50;7.20;;;;;;;;;;6228923;23;20021;-91
2022/05/06 15:03:45;;;;;;;8.18;7.03;;;;;;;;;;6226380;22;20024;-89
2022/05/06 15:06:13;;;;;;;8.98;7.30;;;21.30;99.90;;;;;;6178750;23;20021;-94
2022/05/06 15:08:42;;;;;;;11.57;8.55;;;;;;;;;;6202548;23;20055;-93
2022/05/06 15:11:11;;;;;;;16.15;7.68;;;21.50;99.90;;;;;;6196984;23;20028;-88
2022/05/06 15:13:39;;;;;;;18.42;8.23;;;21.40;99.90;;;;;;6172579;23;20100;-91
2022/05/06 15:16:33;;;;;;;15.52;8.98;;;21.30;99.90;;;;;;6173171;23;20025;-91
2022/05/06 15:21:43;;;;;;;20.67;9.27;;;;;;;;;;6195966;23;20028;-89
2022/05/06 15:24:10;;;;;;;14.45;8.05;;;;;;;;;;6171666;23;20056;-88
2022/05/06 15:26:36;;;;;;;10.82;7.07;;;;;;;;;;6195861;23;20473;-89
2022/05/06 15:29:02;;;;;;;9.95;7.70;;;;;;;;;;6173051;23;20021;-91
2022/05/06 15:34:44;;;;;;;10.48;8.25;;;21.10;99.90;;;;;;6196905;23;20040;-92
2022/05/06 15:40:13;;;;;;;10.32;7.88;;;21.10;99.90;;;;;;6191510;23;20100;-92
2022/05/06 18:53:00;;;;;;;17.10;12.80;;;;;;;;;;6182453;23;20028;-89
2022/05/06 18:56:23;;;;;;;19.35;12.68;;;;;;;;;;6161926;23;20025;-94
2022/05/06 18:58:52;;;;;;;24.90;14.13;;;;;;;;;;6164777;23;20025;-90
2022/05/06 19:04:13;;;;;;;23.13;15.50;;;;;;;;;;6183939;22;20029;-91
2022/05/06 19:06:48;;;;;;;18.23;14.23;;;;;;;;;;6138535;23;20036;-88
2022/05/06 19:09:20;;;;;;;20.08;14.35;;;;;;;;;;6136655;23;20017;-92
2022/05/06 19:11:46;;;;;;;25.33;16.38;;;;;;;;;;6136440;23;20029;-89
2022/05/06 19:15:16;;;;;;;25.60;14.73;;;16.50;99.90;;;;;;6137708;23;20056;-91
2022/05/06 19:18:12;;;;;;;24.33;15.88;;;16.10;99.90;;;;;;5935978;24;20025;-92
2022/05/06 19:20:41;;;;;;;23.13;16.60;;;;;;;;;;5936127;23;20374;-94
2022/05/06 19:26:08;;;;;;;31.02;17.70;;;;;;;;;;6187482;23;20021;-92
2022/05/06 19:28:53;;;;;;;28.88;16.88;;;;;;;;;;6186545;23;20391;-91
2022/05/06 19:40:35;;;;;;;28.60;18.10;;;;;;;;;;6154731;23;20056;-90
2022/05/06 19:43:16;;;;;;;26.60;18.05;;;;;;;;;;6105271;23;20124;-91
2022/05/06 19:49:02;;;;;;;25.05;18.02;;;;;;;;;;6153902;23;20021;-91
2022/05/06 19:54:54;;;;;;;29.80;18.02;;;;;;;;;;6068562;23;20448;-90
2022/05/06 19:57:28;;;;;;;26.08;17.10;;;;;;;;;;6020065;23;20026;-93
2022/05/06 19:59:57;;;;;;;26.63;17.00;;;;;;;;;;6019939;23;20431;-89
2022/05/06 20:02:32;;;;;;;28.27;18.00;;;;;;;;;;6020455;23;20448;-91
2022/05/06 20:04:58;;;;;;;29.85;20.55;;;;;;;;;;6020812;23;20023;-91
2022/05/06 20:07:30;;;;;;;31.00;21.13;;;;;;;;;;6043537;23;20037;-91
2022/05/06 20:10:03;;;;;;;29.67;21.77;;;;;;;;;;6046657;23;20055;-90
2022/05/06 20:12:39;;;;;;;31.92;20.45;;;;;;;;;;6020886;23;20025;-91
2022/05/06 20:15:14;;;;;;;29.77;19.73;;;;;;;;;;6021509;23;20030;-91
2022/05/06 20:17:43;;;;;;;28.25;21.08;;;;;;;;;;6021425;23;20023;-92
2022/05/06 20:20:10;;;;;;;30.45;20.05;;;;;;;;;;6021688;23;20026;-89
2022/05/06 20:22:41;;;;;;;29.75;21.30;;;;;;;;;;6020590;23;20034;-90
2022/05/06 20:25:07;;;;;;;30.80;21.33;;;;;;;;;;6044804;23;20025;-91
2022/05/06 20:27:36;;;;;;;36.20;21.75;;;;;;;;;;6020106;23;20051;-89
2022/05/06 20:30:05;;;;;;;26.80;21.10;;;;;;;;;;6091500;23;20076;-91
2022/05/06 20:32:31;;;;;;;35.00;23.45;;;;;;;;;;6160559;23;20032;-92
2022/05/06 20:35:04;;;;;;;36.85;23.65;;;;;;;;;;6161261;23;20505;-90